sensor_id;sensor_type;location;lat;lon;timestamp;pressure;altitude;pressure_sealevel;temperature;humidity
77247;BME280;66279;42.820;23.374;2024-03-22T00:00:30;95818.22;;;15.32;35.60
77247;BME280;66279;42.820;23.374;2024-03-22T00:02:55;95817.88;;;15.28;35.97
77247;BME280;66279;42.820;23.374;2024-03-22T00:05:21;95828.53;;;15.40;35.62
77247;BME280;66279;42.820;23.374;2024-03-22T00:07:47;95818.56;;;15.35;35.80
77247;BME280;66279;42.820;23.374;2024-03-22T00:10:13;95824.59;;;15.42;35.88
77247;BME280;66279;42.820;23.374;2024-03-22T00:12:39;95821.22;;;15.35;35.59
77247;BME280;66279;42.820;23.374;2024-03-22T00:15:05;95816.81;;;15.53;35.18
77247;BME280;66279;42.820;23.374;2024-03-22T00:17:30;95815.28;;;15.45;35.51
77247;BME280;66279;42.820;23.374;2024-03-22T00:19:56;95815.66;;;15.49;35.25
77247;BME280;66279;42.820;23.374;2024-03-22T00:22:22;95814.97;;;15.30;35.93
77247;BME280;66279;42.820;23.374;2024-03-22T00:24:47;95817.50;;;15.48;35.54
77247;BME280;66279;42.820;23.374;2024-03-22T00:27:12;95814.34;;;15.63;35.22
77247;BME280;66279;42.820;23.374;2024-03-22T00:29:38;95807.88;;;15.47;35.42
77247;BME280;66279;42.820;23.374;2024-03-22T00:32:04;95804.06;;;15.43;35.65
77247;BME280;66279;42.820;23.374;2024-03-22T00:34:30;95812.63;;;15.45;35.58
77247;BME280;66279;42.820;23.374;2024-03-22T00:36:55;95811.00;;;15.56;35.40
77247;BME280;66279;42.820;23.374;2024-03-22T00:39:20;95797.44;;;15.46;35.61
77247;BME280;66279;42.820;23.374;2024-03-22T00:41:46;95778.78;;;15.34;35.60
77247;BME280;66279;42.820;23.374;2024-03-22T00:44:11;95801.16;;;15.33;35.81
77247;BME280;66279;42.820;23.374;2024-03-22T00:46:36;95796.97;;;15.49;35.74
77247;BME280;66279;42.820;23.374;2024-03-22T00:49:02;95804.53;;;15.52;35.51
77247;BME280;66279;42.820;23.374;2024-03-22T00:51:28;95794.31;;;15.37;35.89
77247;BME280;66279;42.820;23.374;2024-03-22T00:53:54;95800.34;;;15.32;36.14
77247;BME280;66279;42.820;23.374;2024-03-22T00:56:19;95789.22;;;15.35;36.09
77247;BME280;66279;42.820;23.374;2024-03-22T00:58:45;95797.22;;;15.24;36.21
77247;BME280;66279;42.820;23.374;2024-03-22T01:01:10;95794.69;;;15.05;36.67
77247;BME280;66279;42.820;23.374;2024-03-22T01:03:36;95791.78;;;14.83;37.00
77247;BME280;66279;42.820;23.374;2024-03-22T01:06:01;95799.88;;;14.77;37.09
77247;BME280;66279;42.820;23.374;2024-03-22T01:08:27;95803.00;;;14.62;37.89
77247;BME280;66279;42.820;23.374;2024-03-22T01:10:53;95801.19;;;14.44;38.04
77247;BME280;66279;42.820;23.374;2024-03-22T01:13:18;95805.50;;;14.15;38.63
77247;BME280;66279;42.820;23.374;2024-03-22T01:15:44;95816.63;;;14.12;38.89
77247;BME280;66279;42.820;23.374;2024-03-22T01:18:11;95812.28;;;13.99;39.04
77247;BME280;66279;42.820;23.374;2024-03-22T01:20:36;95812.59;;;13.91;39.39
77247;BME280;66279;42.820;23.374;2024-03-22T01:23:02;95812.97;;;13.76;39.67
77247;BME280;66279;42.820;23.374;2024-03-22T01:25:28;95807.53;;;13.71;39.48
77247;BME280;66279;42.820;23.374;2024-03-22T01:27:53;95797.09;;;13.51;39.98
77247;BME280;66279;42.820;23.374;2024-03-22T01:30:19;95817.81;;;13.49;40.45
77247;BME280;66279;42.820;23.374;2024-03-22T01:32:44;95804.06;;;13.33;40.71
77247;BME280;66279;42.820;23.374;2024-03-22T01:35:09;95809.34;;;13.15;41.24
77247;BME280;66279;42.820;23.374;2024-03-22T01:37:35;95812.44;;;13.12;41.27
77247;BME280;66279;42.820;23.374;2024-03-22T01:40:01;95810.59;;;13.12;41.27
77247;BME280;66279;42.820;23.374;2024-03-22T01:42:26;95813.94;;;13.26;40.98
77247;BME280;66279;42.820;23.374;2024-03-22T01:44:51;95816.09;;;13.11;41.52
77247;BME280;66279;42.820;23.374;2024-03-22T01:47:17;95809.44;;;13.02;41.28
77247;BME280;66279;42.820;23.374;2024-03-22T01:49:43;95818.03;;;13.04;41.38
77247;BME280;66279;42.820;23.374;2024-03-22T01:52:09;95817.09;;;12.92;41.48
77247;BME280;66279;42.820;23.374;2024-03-22T01:54:34;95819.06;;;13.03;41.24
77247;BME280;66279;42.820;23.374;2024-03-22T01:57:00;95815.44;;;12.97;41.38
77247;BME280;66279;42.820;23.374;2024-03-22T01:59:28;95837.13;;;12.94;41.65
77247;BME280;66279;42.820;23.374;2024-03-22T02:01:54;95819.97;;;12.65;42.06
77247;BME280;66279;42.820;23.374;2024-03-22T02:04:20;95826.50;;;12.69;42.32
77247;BME280;66279;42.820;23.374;2024-03-22T02:06:45;95825.63;;;12.75;41.95
77247;BME280;66279;42.820;23.374;2024-03-22T02:09:10;95822.25;;;12.61;42.38
77247;BME280;66279;42.820;23.374;2024-03-22T02:11:36;95824.66;;;12.70;41.97
77247;BME280;66279;42.820;23.374;2024-03-22T02:14:04;95819.03;;;12.59;42.23
77247;BME280;66279;42.820;23.374;2024-03-22T02:16:30;95817.97;;;12.60;42.18
77247;BME280;66279;42.820;23.374;2024-03-22T02:18:55;95808.97;;;12.61;42.04
77247;BME280;66279;42.820;23.374;2024-03-22T02:21:21;95814.56;;;12.53;42.25
77247;BME280;66279;42.820;23.374;2024-03-22T02:23:46;95820.47;;;12.55;42.14
77247;BME280;66279;42.820;23.374;2024-03-22T02:26:11;95818.25;;;12.52;42.54
77247;BME280;66279;42.820;23.374;2024-03-22T02:28:37;95818.72;;;12.42;42.76
77247;BME280;66279;42.820;23.374;2024-03-22T02:31:03;95819.47;;;12.50;42.48
77247;BME280;66279;42.820;23.374;2024-03-22T02:33:28;95818.59;;;12.31;42.63
77247;BME280;66279;42.820;23.374;2024-03-22T02:35:54;95827.84;;;12.21;43.22
77247;BME280;66279;42.820;23.374;2024-03-22T02:38:20;95826.56;;;12.31;43.26
77247;BME280;66279;42.820;23.374;2024-03-22T02:40:46;95829.78;;;12.39;42.89
77247;BME280;66279;42.820;23.374;2024-03-22T02:43:12;95833.38;;;12.52;42.38
77247;BME280;66279;42.820;23.374;2024-03-22T02:45:38;95831.16;;;12.74;41.87
77247;BME280;66279;42.820;23.374;2024-03-22T02:48:04;95824.59;;;12.51;42.20
77247;BME280;66279;42.820;23.374;2024-03-22T02:50:37;95847.47;;;12.52;42.33
77247;BME280;66279;42.820;23.374;2024-03-22T02:53:03;95836.16;;;12.63;41.93
77247;BME280;66279;42.820;23.374;2024-03-22T02:55:30;95830.75;;;12.45;42.04
77247;BME280;66279;42.820;23.374;2024-03-22T02:57:58;95828.50;;;12.49;41.98
77247;BME280;66279;42.820;23.374;2024-03-22T03:00:23;95839.00;;;12.62;41.81
77247;BME280;66279;42.820;23.374;2024-03-22T03:02:49;95850.91;;;12.53;41.89
77247;BME280;66279;42.820;23.374;2024-03-22T03:05:15;95848.66;;;12.56;41.60
77247;BME280;66279;42.820;23.374;2024-03-22T03:07:40;95854.38;;;12.60;41.81
77247;BME280;66279;42.820;23.374;2024-03-22T03:10:06;95855.38;;;12.27;42.55
77247;BME280;66279;42.820;23.374;2024-03-22T03:12:32;95855.34;;;11.95;43.36
77247;BME280;66279;42.820;23.374;2024-03-22T03:14:58;95822.75;;;12.20;42.48
77247;BME280;66279;42.820;23.374;2024-03-22T03:17:23;95860.59;;;12.40;42.39
77247;BME280;66279;42.820;23.374;2024-03-22T03:19:49;95860.25;;;12.30;42.56
77247;BME280;66279;42.820;23.374;2024-03-22T03:22:14;95863.38;;;12.20;43.10
77247;BME280;66279;42.820;23.374;2024-03-22T03:24:40;95860.81;;;12.39;42.26
77247;BME280;66279;42.820;23.374;2024-03-22T03:27:05;95869.31;;;12.54;41.92
77247;BME280;66279;42.820;23.374;2024-03-22T03:29:31;95873.38;;;12.57;42.08
77247;BME280;66279;42.820;23.374;2024-03-22T03:31:57;95875.16;;;12.31;42.36
77247;BME280;66279;42.820;23.374;2024-03-22T03:34:22;95878.41;;;12.33;42.47
77247;BME280;66279;42.820;23.374;2024-03-22T03:36:47;95884.34;;;12.35;42.57
77247;BME280;66279;42.820;23.374;2024-03-22T03:39:13;95880.47;;;12.38;42.58
77247;BME280;66279;42.820;23.374;2024-03-22T03:41:38;95888.56;;;12.43;42.45
77247;BME280;66279;42.820;23.374;2024-03-22T03:44:04;95891.50;;;12.35;42.37
77247;BME280;66279;42.820;23.374;2024-03-22T03:46:29;95889.03;;;12.33;42.33
77247;BME280;66279;42.820;23.374;2024-03-22T03:48:54;95872.97;;;12.21;42.60
77247;BME280;66279;42.820;23.374;2024-03-22T03:51:20;95883.78;;;12.27;42.09
77247;BME280;66279;42.820;23.374;2024-03-22T03:53:45;95891.50;;;12.28;42.33
77247;BME280;66279;42.820;23.374;2024-03-22T03:56:11;95887.63;;;12.31;42.45
77247;BME280;66279;42.820;23.374;2024-03-22T03:58:36;95892.72;;;12.32;42.36
77247;BME280;66279;42.820;23.374;2024-03-22T04:01:06;95890.59;;;12.48;41.93
77247;BME280;66279;42.820;23.374;2024-03-22T04:03:31;95908.13;;;12.17;42.64
77247;BME280;66279;42.820;23.374;2024-03-22T04:05:57;95900.00;;;12.50;42.04
77247;BME280;66279;42.820;23.374;2024-03-22T04:08:24;95902.50;;;12.38;42.38
77247;BME280;66279;42.820;23.374;2024-03-22T04:10:53;95893.75;;;12.31;42.24
77247;BME280;66279;42.820;23.374;2024-03-22T04:13:22;95899.25;;;12.36;42.00
77247;BME280;66279;42.820;23.374;2024-03-22T04:15:47;95890.81;;;12.08;42.47
77247;BME280;66279;42.820;23.374;2024-03-22T04:18:12;95918.31;;;12.20;42.42
77247;BME280;66279;42.820;23.374;2024-03-22T04:20:38;95909.94;;;12.23;42.50
77247;BME280;66279;42.820;23.374;2024-03-22T04:23:03;95921.81;;;12.14;42.59
77247;BME280;66279;42.820;23.374;2024-03-22T04:25:29;95927.72;;;12.16;42.68
77247;BME280;66279;42.820;23.374;2024-03-22T04:27:54;95913.22;;;12.18;42.11
77247;BME280;66279;42.820;23.374;2024-03-22T04:30:19;95924.84;;;12.17;42.59
77247;BME280;66279;42.820;23.374;2024-03-22T04:32:48;95928.97;;;12.07;42.71
77247;BME280;66279;42.820;23.374;2024-03-22T04:35:13;95925.06;;;12.16;42.48
77247;BME280;66279;42.820;23.374;2024-03-22T04:37:39;95942.19;;;12.27;42.46
77247;BME280;66279;42.820;23.374;2024-03-22T04:40:05;95945.06;;;12.18;42.53
77247;BME280;66279;42.820;23.374;2024-03-22T04:42:30;95945.28;;;12.17;42.40
77247;BME280;66279;42.820;23.374;2024-03-22T04:44:56;95953.84;;;12.26;42.30
77247;BME280;66279;42.820;23.374;2024-03-22T04:47:23;95955.50;;;12.13;42.59
77247;BME280;66279;42.820;23.374;2024-03-22T04:49:48;95954.28;;;12.09;42.70
77247;BME280;66279;42.820;23.374;2024-03-22T04:52:14;95952.47;;;12.03;42.81
77247;BME280;66279;42.820;23.374;2024-03-22T04:54:39;95946.56;;;11.94;42.95
77247;BME280;66279;42.820;23.374;2024-03-22T04:57:05;95951.63;;;12.09;43.05
77247;BME280;66279;42.820;23.374;2024-03-22T04:59:30;95947.19;;;11.96;42.69
77247;BME280;66279;42.820;23.374;2024-03-22T05:01:55;95942.28;;;11.93;42.98
77247;BME280;66279;42.820;23.374;2024-03-22T05:04:21;95952.44;;;12.10;42.74
77247;BME280;66279;42.820;23.374;2024-03-22T05:06:46;95956.13;;;12.09;42.68
77247;BME280;66279;42.820;23.374;2024-03-22T05:09:12;95952.28;;;12.05;42.72
77247;BME280;66279;42.820;23.374;2024-03-22T05:11:37;95952.06;;;12.00;42.85
77247;BME280;66279;42.820;23.374;2024-03-22T05:14:02;95957.41;;;11.93;43.13
77247;BME280;66279;42.820;23.374;2024-03-22T05:16:28;95958.00;;;12.02;42.98
77247;BME280;66279;42.820;23.374;2024-03-22T05:18:54;95954.13;;;11.91;43.33
77247;BME280;66279;42.820;23.374;2024-03-22T05:21:19;95963.31;;;12.02;42.82
77247;BME280;66279;42.820;23.374;2024-03-22T05:23:44;95961.25;;;12.10;43.19
77247;BME280;66279;42.820;23.374;2024-03-22T05:26:10;95968.44;;;11.90;43.49
77247;BME280;66279;42.820;23.374;2024-03-22T05:28:35;95968.22;;;11.98;43.33
77247;BME280;66279;42.820;23.374;2024-03-22T05:31:00;95969.06;;;11.92;43.29
77247;BME280;66279;42.820;23.374;2024-03-22T05:33:26;95955.38;;;11.95;43.42
77247;BME280;66279;42.820;23.374;2024-03-22T05:35:52;95980.47;;;11.99;43.32
77247;BME280;66279;42.820;23.374;2024-03-22T05:38:17;95975.34;;;11.97;43.56
77247;BME280;66279;42.820;23.374;2024-03-22T05:40:43;95976.34;;;12.03;43.50
77247;BME280;66279;42.820;23.374;2024-03-22T05:43:10;95979.66;;;11.98;43.54
77247;BME280;66279;42.820;23.374;2024-03-22T05:45:35;95981.28;;;11.93;43.78
77247;BME280;66279;42.820;23.374;2024-03-22T05:48:01;95977.00;;;11.98;43.43
77247;BME280;66279;42.820;23.374;2024-03-22T05:50:26;95978.63;;;12.00;43.58
77247;BME280;66279;42.820;23.374;2024-03-22T05:52:52;95985.13;;;12.04;43.63
77247;BME280;66279;42.820;23.374;2024-03-22T05:55:17;95981.06;;;11.94;43.58
77247;BME280;66279;42.820;23.374;2024-03-22T05:57:43;95980.88;;;11.96;43.68
77247;BME280;66279;42.820;23.374;2024-03-22T06:00:08;95982.31;;;11.92;43.83
77247;BME280;66279;42.820;23.374;2024-03-22T06:02:34;95975.75;;;11.94;43.69
77247;BME280;66279;42.820;23.374;2024-03-22T06:04:59;95983.16;;;11.86;44.02
77247;BME280;66279;42.820;23.374;2024-03-22T06:07:25;95977.00;;;11.85;42.91
77247;BME280;66279;42.820;23.374;2024-03-22T06:09:51;95971.94;;;11.17;43.49
77247;BME280;66279;42.820;23.374;2024-03-22T06:12:18;95981.50;;;11.65;42.84
77247;BME280;66279;42.820;23.374;2024-03-22T06:14:43;95982.31;;;11.92;42.21
77247;BME280;66279;42.820;23.374;2024-03-22T06:17:09;95980.06;;;11.75;42.79
77247;BME280;66279;42.820;23.374;2024-03-22T06:19:35;95979.06;;;11.90;42.92
77247;BME280;66279;42.820;23.374;2024-03-22T06:22:00;95978.00;;;11.84;43.04
77247;BME280;66279;42.820;23.374;2024-03-22T06:24:27;95984.16;;;11.65;43.86
77247;BME280;66279;42.820;23.374;2024-03-22T06:26:52;95981.09;;;11.68;40.61
77247;BME280;66279;42.820;23.374;2024-03-22T06:29:17;95981.34;;;11.46;41.52
77247;BME280;66279;42.820;23.374;2024-03-22T06:31:43;95986.63;;;11.46;42.07
77247;BME280;66279;42.820;23.374;2024-03-22T06:34:08;95983.16;;;11.33;42.70
77247;BME280;66279;42.820;23.374;2024-03-22T06:36:34;95978.88;;;11.38;42.80
77247;BME280;66279;42.820;23.374;2024-03-22T06:38:59;95980.91;;;11.23;43.48
77247;BME280;66279;42.820;23.374;2024-03-22T06:41:25;95985.00;;;11.19;44.05
77247;BME280;66279;42.820;23.374;2024-03-22T06:43:53;95990.31;;;11.12;43.14
77247;BME280;66279;42.820;23.374;2024-03-22T06:46:19;95979.44;;;10.80;44.18
77247;BME280;66279;42.820;23.374;2024-03-22T06:48:45;95950.50;;;10.66;44.82
77247;BME280;66279;42.820;23.374;2024-03-22T06:51:10;95991.47;;;10.83;45.16
77247;BME280;66279;42.820;23.374;2024-03-22T06:53:36;95989.69;;;11.37;44.31
77247;BME280;66279;42.820;23.374;2024-03-22T06:56:01;95994.53;;;10.87;46.21
77247;BME280;66279;42.820;23.374;2024-03-22T06:58:27;95992.25;;;10.70;45.72
77247;BME280;66279;42.820;23.374;2024-03-22T07:00:54;95996.56;;;10.85;45.38
77247;BME280;66279;42.820;23.374;2024-03-22T07:03:19;95999.13;;;10.51;45.97
77247;BME280;66279;42.820;23.374;2024-03-22T07:05:47;96007.69;;;10.47;46.60
77247;BME280;66279;42.820;23.374;2024-03-22T07:08:12;95993.16;;;10.36;46.69
77247;BME280;66279;42.820;23.374;2024-03-22T07:10:40;95998.91;;;10.46;46.55
77247;BME280;66279;42.820;23.374;2024-03-22T07:13:06;96003.38;;;10.46;47.07
77247;BME280;66279;42.820;23.374;2024-03-22T07:15:31;95993.44;;;10.54;46.95
77247;BME280;66279;42.820;23.374;2024-03-22T07:17:58;96001.75;;;10.45;47.26
77247;BME280;66279;42.820;23.374;2024-03-22T07:20:24;95996.88;;;10.48;47.19
77247;BME280;66279;42.820;23.374;2024-03-22T07:22:50;96003.50;;;10.99;46.63
77247;BME280;66279;42.820;23.374;2024-03-22T07:25:15;95998.66;;;11.29;45.83
77247;BME280;66279;42.820;23.374;2024-03-22T07:27:40;96001.31;;;11.29;46.01
77247;BME280;66279;42.820;23.374;2024-03-22T07:30:06;95996.63;;;11.24;46.24
77247;BME280;66279;42.820;23.374;2024-03-22T07:32:32;95995.19;;;11.15;46.21
77247;BME280;66279;42.820;23.374;2024-03-22T07:34:58;95986.22;;;11.10;46.81
77247;BME280;66279;42.820;23.374;2024-03-22T07:37:24;95998.66;;;11.36;46.50
77247;BME280;66279;42.820;23.374;2024-03-22T07:39:49;95995.59;;;11.25;46.80
77247;BME280;66279;42.820;23.374;2024-03-22T07:42:15;95990.50;;;11.31;46.53
77247;BME280;66279;42.820;23.374;2024-03-22T07:44:40;95993.75;;;11.26;46.68
77247;BME280;66279;42.820;23.374;2024-03-22T07:47:06;95993.75;;;11.33;47.14
77247;BME280;66279;42.820;23.374;2024-03-22T07:49:31;95987.44;;;11.07;46.84
77247;BME280;66279;42.820;23.374;2024-03-22T07:51:59;95993.34;;;11.22;46.94
77247;BME280;66279;42.820;23.374;2024-03-22T07:54:24;95997.44;;;11.38;46.86
77247;BME280;66279;42.820;23.374;2024-03-22T07:56:50;95999.06;;;11.26;46.73
77247;BME280;66279;42.820;23.374;2024-03-22T07:59:15;95997.22;;;11.13;47.46
77247;BME280;66279;42.820;23.374;2024-03-22T08:01:40;95994.16;;;11.16;47.47
77247;BME280;66279;42.820;23.374;2024-03-22T08:04:06;95993.75;;;11.26;47.18
77247;BME280;66279;42.820;23.374;2024-03-22T08:06:31;95985.41;;;11.16;47.38
77247;BME280;66279;42.820;23.374;2024-03-22T08:08:57;95986.03;;;11.18;47.42
77247;BME280;66279;42.820;23.374;2024-03-22T08:11:22;95993.13;;;11.11;48.05
77247;BME280;66279;42.820;23.374;2024-03-22T08:13:48;95982.75;;;11.36;46.90
77247;BME280;66279;42.820;23.374;2024-03-22T08:16:13;95981.94;;;11.28;47.13
77247;BME280;66279;42.820;23.374;2024-03-22T08:18:38;95987.88;;;11.31;47.14
77247;BME280;66279;42.820;23.374;2024-03-22T08:21:04;95980.94;;;11.36;47.24
77247;BME280;66279;42.820;23.374;2024-03-22T08:23:29;95984.59;;;11.48;46.75
77247;BME280;66279;42.820;23.374;2024-03-22T08:25:55;95980.94;;;11.36;47.00
77247;BME280;66279;42.820;23.374;2024-03-22T08:28:22;95980.72;;;11.31;47.36
77247;BME280;66279;42.820;23.374;2024-03-22T08:30:47;95978.69;;;11.40;46.96
77247;BME280;66279;42.820;23.374;2024-03-22T08:33:13;95972.34;;;11.54;46.58
77247;BME280;66279;42.820;23.374;2024-03-22T08:35:39;95968.91;;;11.40;47.27
77247;BME280;66279;42.820;23.374;2024-03-22T08:38:05;95972.69;;;11.84;45.79
77247;BME280;66279;42.820;23.374;2024-03-22T08:40:38;95970.38;;;12.21;44.46
77247;BME280;66279;42.820;23.374;2024-03-22T08:43:04;95968.84;;;11.73;45.60
77247;BME280;66279;42.820;23.374;2024-03-22T08:45:29;95969.88;;;11.86;45.02
77247;BME280;66279;42.820;23.374;2024-03-22T08:47:55;95974.34;;;11.72;45.78
77247;BME280;66279;42.820;23.374;2024-03-22T08:50:20;95965.97;;;11.75;45.98
77247;BME280;66279;42.820;23.374;2024-03-22T08:52:46;95969.25;;;11.77;45.37
77247;BME280;66279;42.820;23.374;2024-03-22T08:55:11;95974.97;;;11.74;45.45
77247;BME280;66279;42.820;23.374;2024-03-22T08:57:36;95965.81;;;11.70;45.54
77247;BME280;66279;42.820;23.374;2024-03-22T09:00:02;95962.72;;;11.66;45.82
77247;BME280;66279;42.820;23.374;2024-03-22T09:02:28;95959.28;;;11.86;45.31
77247;BME280;66279;42.820;23.374;2024-03-22T09:04:53;95965.56;;;11.78;45.28
77247;BME280;66279;42.820;23.374;2024-03-22T09:07:19;95968.44;;;11.77;45.38
77247;BME280;66279;42.820;23.374;2024-03-22T09:09:44;95959.28;;;11.59;46.08
77247;BME280;66279;42.820;23.374;2024-03-22T09:12:10;95953.16;;;11.59;45.97
77247;BME280;66279;42.820;23.374;2024-03-22T09:14:35;95953.97;;;11.86;45.72
77247;BME280;66279;42.820;23.374;2024-03-22T09:17:01;95953.34;;;11.77;46.06
77247;BME280;66279;42.820;23.374;2024-03-22T09:19:26;95944.56;;;11.77;45.54
77247;BME280;66279;42.820;23.374;2024-03-22T09:21:51;95933.53;;;11.80;45.50
77247;BME280;66279;42.820;23.374;2024-03-22T09:24:17;95941.28;;;11.88;45.40
77247;BME280;66279;42.820;23.374;2024-03-22T09:26:42;95943.50;;;11.97;45.20
77247;BME280;66279;42.820;23.374;2024-03-22T09:29:08;95936.50;;;12.10;44.60
77247;BME280;66279;42.820;23.374;2024-03-22T09:31:33;95940.84;;;11.97;45.16
77247;BME280;66279;42.820;23.374;2024-03-22T09:33:59;95929.44;;;11.84;45.36
77247;BME280;66279;42.820;23.374;2024-03-22T09:36:24;95929.38;;;12.04;45.11
77247;BME280;66279;42.820;23.374;2024-03-22T09:38:50;95930.81;;;12.06;44.90
77247;BME280;66279;42.820;23.374;2024-03-22T09:41:17;95910.09;;;11.77;45.25
77247;BME280;66279;42.820;23.374;2024-03-22T09:43:48;95930.28;;;11.71;46.38
77247;BME280;66279;42.820;23.374;2024-03-22T09:46:15;95929.81;;;12.01;45.55
77247;BME280;66279;42.820;23.374;2024-03-22T09:48:41;95919.00;;;12.02;45.29
77247;BME280;66279;42.820;23.374;2024-03-22T09:51:07;95916.97;;;11.84;46.13
77247;BME280;66279;42.820;23.374;2024-03-22T09:53:34;95924.56;;;11.81;46.56
77247;BME280;66279;42.820;23.374;2024-03-22T09:56:01;95918.44;;;11.87;46.34
77247;BME280;66279;42.820;23.374;2024-03-22T09:58:27;95916.94;;;12.11;45.38
77247;BME280;66279;42.820;23.374;2024-03-22T10:00:53;95905.25;;;12.18;44.67
77247;BME280;66279;42.820;23.374;2024-03-22T10:03:25;95920.97;;;12.20;45.06
77247;BME280;66279;42.820;23.374;2024-03-22T10:05:51;95916.78;;;11.92;45.95
77247;BME280;66279;42.820;23.374;2024-03-22T10:08:16;95910.47;;;11.80;46.49
77247;BME280;66279;42.820;23.374;2024-03-22T10:10:41;95913.69;;;12.02;46.28
77247;BME280;66279;42.820;23.374;2024-03-22T10:13:07;95908.00;;;12.37;45.01
77247;BME280;66279;42.820;23.374;2024-03-22T10:15:32;95909.16;;;12.54;44.04
77247;BME280;66279;42.820;23.374;2024-03-22T10:17:58;95908.50;;;12.20;45.22
77247;BME280;66279;42.820;23.374;2024-03-22T10:20:23;95902.63;;;12.12;45.65
77247;BME280;66279;42.820;23.374;2024-03-22T10:22:55;95897.84;;;12.27;45.17
77247;BME280;66279;42.820;23.374;2024-03-22T10:25:22;95894.84;;;12.17;45.58
77247;BME280;66279;42.820;23.374;2024-03-22T10:27:47;95900.69;;;11.87;46.59
77247;BME280;66279;42.820;23.374;2024-03-22T10:30:15;95898.25;;;12.31;45.36
77247;BME280;66279;42.820;23.374;2024-03-22T10:32:42;95896.09;;;12.14;45.73
77247;BME280;66279;42.820;23.374;2024-03-22T10:35:09;95890.13;;;12.19;45.63
77247;BME280;66279;42.820;23.374;2024-03-22T10:37:36;95896.38;;;11.93;46.69
77247;BME280;66279;42.820;23.374;2024-03-22T10:40:02;95898.19;;;11.99;46.48
77247;BME280;66279;42.820;23.374;2024-03-22T10:42:39;95877.69;;;12.19;45.96
77247;BME280;66279;42.820;23.374;2024-03-22T10:45:06;95875.63;;;12.21;45.90
77247;BME280;66279;42.820;23.374;2024-03-22T10:47:34;95885.09;;;12.42;45.27
77247;BME280;66279;42.820;23.374;2024-03-22T10:50:09;95876.66;;;12.20;45.85
77247;BME280;66279;42.820;23.374;2024-03-22T10:53:13;95860.06;;;12.32;45.37
77247;BME280;66279;42.820;23.374;2024-03-22T10:55:44;95864.09;;;12.41;45.10
77247;BME280;66279;42.820;23.374;2024-03-22T10:58:15;95860.50;;;12.29;45.58
77247;BME280;66279;42.820;23.374;2024-03-22T11:00:42;95854.72;;;12.38;45.00
77247;BME280;66279;42.820;23.374;2024-03-22T11:03:09;95855.03;;;12.49;44.09
77247;BME280;66279;42.820;23.374;2024-03-22T11:05:34;95858.78;;;12.41;44.19
77247;BME280;66279;42.820;23.374;2024-03-22T11:08:09;95854.19;;;12.23;44.88
77247;BME280;66279;42.820;23.374;2024-03-22T11:10:35;95859.34;;;12.11;45.30
77247;BME280;66279;42.820;23.374;2024-03-22T11:13:04;95849.41;;;12.38;44.14
77247;BME280;66279;42.820;23.374;2024-03-22T11:15:30;95856.28;;;12.14;45.38
77247;BME280;66279;42.820;23.374;2024-03-22T11:17:56;95854.31;;;12.35;45.19
77247;BME280;66279;42.820;23.374;2024-03-22T11:20:22;95855.94;;;11.97;46.14
77247;BME280;66279;42.820;23.374;2024-03-22T11:22:47;95840.50;;;12.26;45.57
77247;BME280;66279;42.820;23.374;2024-03-22T11:25:13;95840.44;;;12.33;40.89
77247;BME280;66279;42.820;23.374;2024-03-22T11:27:38;95844.41;;;12.17;39.96
77247;BME280;66279;42.820;23.374;2024-03-22T11:30:04;95839.50;;;12.20;39.44
77247;BME280;66279;42.820;23.374;2024-03-22T11:32:30;95836.06;;;12.13;39.51
77247;BME280;66279;42.820;23.374;2024-03-22T11:34:56;95830.50;;;12.21;38.16
77247;BME280;66279;42.820;23.374;2024-03-22T11:37:21;95830.25;;;12.30;39.40
77247;BME280;66279;42.820;23.374;2024-03-22T11:39:47;95825.94;;;12.35;39.13
77247;BME280;66279;42.820;23.374;2024-03-22T11:42:13;95816.78;;;12.25;38.23
77247;BME280;66279;42.820;23.374;2024-03-22T11:44:40;95819.69;;;12.23;38.12
77247;BME280;66279;42.820;23.374;2024-03-22T11:47:06;95824.31;;;12.28;37.44
77247;BME280;66279;42.820;23.374;2024-03-22T11:49:31;95817.59;;;12.32;37.34
77247;BME280;66279;42.820;23.374;2024-03-22T11:51:57;95813.66;;;12.34;37.63
77247;BME280;66279;42.820;23.374;2024-03-22T11:54:22;95811.41;;;12.38;37.49
77247;BME280;66279;42.820;23.374;2024-03-22T11:56:51;95814.13;;;12.81;36.05
77247;BME280;66279;42.820;23.374;2024-03-22T11:59:19;95799.97;;;12.37;35.60
77247;BME280;66279;42.820;23.374;2024-03-22T12:01:46;95807.13;;;12.05;35.26
77247;BME280;66279;42.820;23.374;2024-03-22T12:04:11;95796.53;;;11.98;35.93
77247;BME280;66279;42.820;23.374;2024-03-22T12:06:41;95802.09;;;12.22;37.02
77247;BME280;66279;42.820;23.374;2024-03-22T12:09:06;95792.22;;;12.61;38.92
77247;BME280;66279;42.820;23.374;2024-03-22T12:11:32;95794.97;;;12.23;42.48
77247;BME280;66279;42.820;23.374;2024-03-22T12:13:57;95782.88;;;12.27;43.73
77247;BME280;66279;42.820;23.374;2024-03-22T12:16:23;95798.97;;;12.00;46.49
77247;BME280;66279;42.820;23.374;2024-03-22T12:18:48;95786.53;;;12.32;47.68
77247;BME280;66279;42.820;23.374;2024-03-22T12:21:13;95785.22;;;12.16;49.61
77247;BME280;66279;42.820;23.374;2024-03-22T12:23:39;95767.25;;;12.69;47.48
77247;BME280;66279;42.820;23.374;2024-03-22T12:26:04;95780.88;;;12.97;48.65
77247;BME280;66279;42.820;23.374;2024-03-22T12:28:30;95781.97;;;12.89;48.90
77247;BME280;66279;42.820;23.374;2024-03-22T12:30:55;95776.22;;;12.93;49.01
77247;BME280;66279;42.820;23.374;2024-03-22T12:33:21;95779.63;;;13.00;49.62
77247;BME280;66279;42.820;23.374;2024-03-22T12:35:46;95771.66;;;13.00;50.50
77247;BME280;66279;42.820;23.374;2024-03-22T12:38:13;95767.00;;;12.95;51.35
77247;BME280;66279;42.820;23.374;2024-03-22T12:40:39;95771.72;;;12.93;51.61
77247;BME280;66279;42.820;23.374;2024-03-22T12:43:05;95773.84;;;12.84;52.40